Capitol Logistics 454


KRIV
March Air Reserve Base
Riverside, California, US
KPDX
Portland International Airport
Portland, Oregon, US

Activity Log

Date Flight Route Aircraft Duration
03/24/2020 CPX454 SOPEA1 OCN J1 LAX J88 SNS SPNSR TMBRS2 B738 2h 33m
01/22/2020 CPX454 N0450F400 SKYES4 OCN J1 LAX GMN LMT OCITY2 B738 2h 31m
01/04/2020 CPX454 SOPEA1 OCN J1 LAX J88 SNS SPNSR TMBRS2 B738 2h 08m
07/02/2019 CPX454 SOPEA1 OCN J1 LAX J88 SNS SPNSR TMBRS2 B738 2h 16m

Route Details

Aircraft Information
Primary: Boeing 737-800BCF
Backup: Not Available
Route Data
Distance: 743nm
Sched. Duration: 2h 14m
Avg. Duration: 2h 22m (+7m)
Times Flown: 4
Recm'd Route: SOPEA1 OCN J1 LAX J88 SNS SPNSR TMBRS2
Planned Altitude: 38,000ft
Origin Wx: KRIV 280958Z AUTO 00000KT 7SM CLR 14/13 A2991 RMK AO2 SLP115 T01400125 PWINO $
Dest. Wx: KPDX 280953Z 31008KT 10SM CLR 13/11 A3031 RMK AO2 SLP264 T01330106
Notes:

Financial History
Total Freight: 109,297lbs
Average Load: 27,324lbs/flt
Fuel Used: 47,145lbs
Avg. Fuel Used: 11,786lbs/flt
Fuel Expense: $32,530
Avg. Fuel Expense: $8,133
Avg. Fuel Cost: $0.69/lbs
Total Gross Income: $148,829
Pilot Pay: $816
Total Expenses: $16,282
Total Revenue: $98,090
Average Revenue: $37,207.19